Airfield :
LOGIN :

Register | Disclaimer

   EN    FR    IT 

 










Legend :    VFR   Marginal VFR   IFR   Intensive IFR   Very Intensive IFR
Visi :
Ceiling :
>= 8 km
>= 3000ft
5 to 8 km
1000 to 3000 ft
1500m to 5 km
500 to 1000 ft
800 to 1500m
200 to 500 ft
< 800m
< 200 ft
Symbols :   Thunderstorms  Fog  Heavy snow  Heavy precipitations  Wind > 20 kt
SIGMETs :     Misc.  Thunderstorms  Icing  Turbulence  Mountain Waves  Volcanic Ashes







- Airport Elevation : 194 ft


EBCV - Chièvres

CURRENT METAR :
  • 191555Z AUTO 25006KT 9999 SCT042/// 09/03 Q1021 BLU

EXPIRED METARs :
  • 191525Z AUTO 24006KT 9999 FEW047/// 09/03 Q1021 BLU
  • 191455Z AUTO 24010KT 9999 FEW035/// 10/03 Q1021 BLU
  • 191425Z AUTO 25008KT 9999 SCT034/// 11/03 Q1021 BLU
  • 191355Z AUTO 25008KT 9999 SCT030/// 10/03 Q1021 BLU
  • 191325Z AUTO 27010KT 9999 BKN029/// 10/04 Q1021 BLU

TAF TAF EBCV
Valid from the 19 at 13:00 until the 19 at 22:00 UTC


191141Z 1913/1922 24011KT 9999 FEW020 SCT030
TEMPO 1913/1915 SCT020 BKN040
BECMG 1915/1917 24006KT FEW035 SCT180 BKN230 BY EBWM
No reported NOTAMs for that airfield.



MET'MAP, your aeronautical weather chart ! - Copyright ORBIFLY December 2007 - Disclaimer

ORBIFLY MET'MAP TEAM :

Programming & Development : Alexandra Zaïnal
Concept & Development : Baudouin d'Aumeries
Co-Development & Prog : Marc-Olivier Méhu
Technical & hardware support : Manuel Goepfert

Contact : metmap@orbifly.com




SOURCES & CREDITS :

   NOAA